Global Prosperity — 3EFD4 — position and weather

sailwx.info

Track history (hours):
 
Tides and Currents Weather Stations Pressure Air Temp Water Temp Dewpoint Dewpoint Depression Visibility Wind Speed Wind Dir Waves Ship Positions

Global Prosperity

Last reported at 2018-Feb-23 06:54 UTC. Time now 2018-Feb-24 00:16 UTC.
Position N 33°07' E 132°10'.

Length 175 m; draft 6.1 m.

Type: Cargo ship. MMSI: 353285000.

Date/timePositionNaut miles runAvg speedWind from/ knotsBaromVisibWave heightAir tempDewpointWater temp
2018-Feb-23 06:54N 33°07' E 132°10'512.6
2018-Feb-23 06:30N 33°11' E 132°07'612.6
2018-Feb-23 05:59N 33°16' E 132°02'713.6
2018-Feb-23 05:30N 33°22' E 131°59'612.6
2018-Feb-23 05:00N 33°28' E 132°03'1913.1
2018-Feb-23 03:33N 33°41' E 132°20'112.0
2018-Feb-23 03:30N 33°41' E 132°20'711.1
2018-Feb-23 02:52N 33°46' E 132°26'410.8
2018-Feb-23 02:30N 33°48' E 132°30'610.8
2018-Feb-23 01:59N 33°52' E 132°34'5 9.0
2018-Feb-23 01:26N 33°57' E 132°34'510.7
2018-Feb-23 01:00N 34°01' E 132°37'511.0
2018-Feb-23 00:30N 34°07' E 132°38'510.0
2018-Feb-23 00:00N 34°12' E 132°36'  
2018-Feb-18 00:31N 34°12' E 132°36'0 7.5
2018-Feb-18 00:27N 34°12' E 132°36'1 0.8
2018-Feb-17 23:17N 34°12' E 132°37'0 0.0
2018-Feb-17 22:56N 34°12' E 132°37'0 0.0
2018-Feb-17 22:20N 34°12' E 132°37'0 0.1
2018-Feb-17 21:44N 34°12' E 132°37'0 0.0
2018-Feb-17 21:17N 34°12' E 132°37'0 0.1
2018-Feb-17 20:11N 34°12' E 132°37'0 0.0
2018-Feb-17 19:50N 34°12' E 132°37'0 0.0
2018-Feb-17 19:23N 34°12' E 132°37'0 0.0
2018-Feb-17 14:32N 34°12' E 132°37'0 0.0
2018-Feb-17 14:26N 34°12' E 132°37'0 0.1
2018-Feb-17 13:59N 34°12' E 132°37'0 0.0
2018-Feb-17 11:08N 34°12' E 132°37'0 0.0
2018-Feb-17 10:50N 34°12' E 132°37'0 0.0
2018-Feb-17 10:23N 34°12' E 132°37'0 0.0
2018-Feb-17 09:57N 34°12' E 132°37'0 0.0
2018-Feb-17 09:27N 34°12' E 132°37'0 0.0
2018-Feb-17 08:46N 34°12' E 132°37'0 0.0
2018-Feb-17 08:18N 34°12' E 132°37'0 0.0
2018-Feb-17 07:51N 34°12' E 132°37'0 0.0
2018-Feb-17 07:29N 34°12' E 132°37'0 0.1
2018-Feb-17 04:14N 34°12' E 132°37'1 5.5
2018-Feb-17 04:00N 34°10' E 132°37'4 8.1
2018-Feb-17 03:30N 34°06' E 132°37'3 5.2
2018-Feb-17 03:00N 34°04' E 132°37'4 8.4
2018-Feb-17 02:30N 33°60' E 132°36'4 6.8
2018-Feb-17 01:59N 33°56' E 132°35'4 7.7
2018-Feb-17 01:30N 33°53' E 132°36'611.0
2018-Feb-17 01:00N 33°49' E 132°32'7 9.3
2018-Feb-17 00:17N 33°44' E 132°26'310.6
2018-Feb-17 00:00N 33°42' E 132°23'2211.4
2018-Feb-16 22:05N 33°27' E 132°04'112.1
2018-Feb-16 21:58N 33°27' E 132°03'511.6
2018-Feb-16 21:30N 33°22' E 131°59'510.5
2018-Feb-16 21:00N 33°17' E 132°01'610.6
2018-Feb-16 20:28N 33°12' E 132°05'  
2018-Feb-13 07:55N 32°43' E 133°16'  
Track history (hours):
 
Tides and Currents Weather Stations Pressure Air Temp Water Temp Dewpoint Dewpoint Depression Visibility Wind Speed Wind Dir Waves Ship Positions

Global Prosperity

Last reported at 2018-Feb-23 06:54 UTC. Time now 2018-Feb-24 00:16 UTC.
Position N 33°07' E 132°10'.

Length 175 m; draft 6.1 m.

Type: Cargo ship. MMSI: 353285000.

Date/timePositionNaut miles runAvg speedWind from/ knotsBaromVisibWave heightAir tempDewpointWater temp
2018-Feb-23 06:54N 33°07' E 132°10'512.6
2018-Feb-23 06:30N 33°11' E 132°07'612.6
2018-Feb-23 05:59N 33°16' E 132°02'713.6
2018-Feb-23 05:30N 33°22' E 131°59'612.6
2018-Feb-23 05:00N 33°28' E 132°03'1913.1
2018-Feb-23 03:33N 33°41' E 132°20'112.0
2018-Feb-23 03:30N 33°41' E 132°20'711.1
2018-Feb-23 02:52N 33°46' E 132°26'410.8
2018-Feb-23 02:30N 33°48' E 132°30'610.8
2018-Feb-23 01:59N 33°52' E 132°34'5 9.0
2018-Feb-23 01:26N 33°57' E 132°34'510.7
2018-Feb-23 01:00N 34°01' E 132°37'511.0
2018-Feb-23 00:30N 34°07' E 132°38'510.0
2018-Feb-23 00:00N 34°12' E 132°36'  
2018-Feb-18 00:31N 34°12' E 132°36'0 7.5
2018-Feb-18 00:27N 34°12' E 132°36'1 0.8
2018-Feb-17 23:17N 34°12' E 132°37'0 0.0
2018-Feb-17 22:56N 34°12' E 132°37'0 0.0
2018-Feb-17 22:20N 34°12' E 132°37'0 0.1
2018-Feb-17 21:44N 34°12' E 132°37'0 0.0
2018-Feb-17 21:17N 34°12' E 132°37'0 0.1
2018-Feb-17 20:11N 34°12' E 132°37'0 0.0
2018-Feb-17 19:50N 34°12' E 132°37'0 0.0
2018-Feb-17 19:23N 34°12' E 132°37'0 0.0
2018-Feb-17 14:32N 34°12' E 132°37'0 0.0
2018-Feb-17 14:26N 34°12' E 132°37'0 0.1
2018-Feb-17 13:59N 34°12' E 132°37'0 0.0
2018-Feb-17 11:08N 34°12' E 132°37'0 0.0
2018-Feb-17 10:50N 34°12' E 132°37'0 0.0
2018-Feb-17 10:23N 34°12' E 132°37'0 0.0
2018-Feb-17 09:57N 34°12' E 132°37'0 0.0
2018-Feb-17 09:27N 34°12' E 132°37'0 0.0
2018-Feb-17 08:46N 34°12' E 132°37'0 0.0
2018-Feb-17 08:18N 34°12' E 132°37'0 0.0
2018-Feb-17 07:51N 34°12' E 132°37'0 0.0
2018-Feb-17 07:29N 34°12' E 132°37'0 0.1
2018-Feb-17 04:14N 34°12' E 132°37'1 5.5
2018-Feb-17 04:00N 34°10' E 132°37'4 8.1
2018-Feb-17 03:30N 34°06' E 132°37'3 5.2
2018-Feb-17 03:00N 34°04' E 132°37'4 8.4
2018-Feb-17 02:30N 33°60' E 132°36'4 6.8
2018-Feb-17 01:59N 33°56' E 132°35'4 7.7
2018-Feb-17 01:30N 33°53' E 132°36'611.0
2018-Feb-17 01:00N 33°49' E 132°32'7 9.3
2018-Feb-17 00:17N 33°44' E 132°26'310.6
2018-Feb-17 00:00N 33°42' E 132°23'2211.4
2018-Feb-16 22:05N 33°27' E 132°04'112.1
2018-Feb-16 21:58N 33°27' E 132°03'511.6
2018-Feb-16 21:30N 33°22' E 131°59'510.5
2018-Feb-16 21:00N 33°17' E 132°01'610.6
2018-Feb-16 20:28N 33°12' E 132°05'  
2018-Feb-13 07:55N 32°43' E 133°16'  

Dump ship's entire track history